sensor_id;sensor_type;location;lat;lon;timestamp;P1;durP1;ratioP1;P2;durP2;ratioP2
66478;SDS011;53294;47.912;13.526;2022-08-11T00:01:23;4.78;;;2.92;;
66478;SDS011;53294;47.912;13.526;2022-08-11T00:03:53;4.47;;;2.90;;
66478;SDS011;53294;47.912;13.526;2022-08-11T00:06:25;4.80;;;2.78;;
66478;SDS011;53294;47.912;13.526;2022-08-11T00:09:00;5.25;;;2.90;;
66478;SDS011;53294;47.912;13.526;2022-08-11T00:11:34;5.15;;;3.10;;
66478;SDS011;53294;47.912;13.526;2022-08-11T00:14:13;6.15;;;3.10;;
66478;SDS011;53294;47.912;13.526;2022-08-11T00:16:40;5.40;;;3.20;;
66478;SDS011;53294;47.912;13.526;2022-08-11T00:19:08;5.60;;;3.33;;
66478;SDS011;53294;47.912;13.526;2022-08-11T00:21:40;5.18;;;3.13;;
66478;SDS011;53294;47.912;13.526;2022-08-11T00:24:32;5.72;;;3.50;;
66478;SDS011;53294;47.912;13.526;2022-08-11T00:27:18;4.90;;;3.13;;
66478;SDS011;53294;47.912;13.526;2022-08-11T00:29:52;7.55;;;3.40;;
66478;SDS011;53294;47.912;13.526;2022-08-11T00:32:19;5.10;;;3.63;;
66478;SDS011;53294;47.912;13.526;2022-08-11T00:34:47;5.10;;;3.22;;
66478;SDS011;53294;47.912;13.526;2022-08-11T00:37:19;5.40;;;3.47;;
66478;SDS011;53294;47.912;13.526;2022-08-11T00:39:49;4.15;;;2.92;;
66478;SDS011;53294;47.912;13.526;2022-08-11T00:42:54;5.40;;;3.35;;
66478;SDS011;53294;47.912;13.526;2022-08-11T00:46:07;5.68;;;3.30;;
66478;SDS011;53294;47.912;13.526;2022-08-11T01:00:21;4.85;;;2.95;;
66478;SDS011;53294;47.912;13.526;2022-08-11T01:14:52;5.90;;;3.15;;
66478;SDS011;53294;47.912;13.526;2022-08-11T01:21:13;4.57;;;2.90;;
66478;SDS011;53294;47.912;13.526;2022-08-11T01:34:48;5.13;;;3.20;;
66478;SDS011;53294;47.912;13.526;2022-08-11T01:40:14;6.60;;;4.05;;
66478;SDS011;53294;47.912;13.526;2022-08-11T01:43:34;5.07;;;3.60;;
66478;SDS011;53294;47.912;13.526;2022-08-11T01:51:19;6.78;;;3.90;;
66478;SDS011;53294;47.912;13.526;2022-08-11T01:59:42;5.13;;;3.88;;
66478;SDS011;53294;47.912;13.526;2022-08-11T02:02:29;5.50;;;4.20;;
66478;SDS011;53294;47.912;13.526;2022-08-11T02:16:46;6.53;;;4.18;;
66478;SDS011;53294;47.912;13.526;2022-08-11T02:34:10;5.30;;;3.90;;
66478;SDS011;53294;47.912;13.526;2022-08-11T02:36:57;6.18;;;4.53;;
66478;SDS011;53294;47.912;13.526;2022-08-11T02:39:30;7.00;;;4.05;;
66478;SDS011;53294;47.912;13.526;2022-08-11T02:42:15;7.35;;;3.80;;
66478;SDS011;53294;47.912;13.526;2022-08-11T02:48:13;5.85;;;4.50;;
66478;SDS011;53294;47.912;13.526;2022-08-11T03:02:30;6.93;;;4.35;;
66478;SDS011;53294;47.912;13.526;2022-08-11T03:05:28;6.53;;;4.50;;
66478;SDS011;53294;47.912;13.526;2022-08-11T03:10:59;6.43;;;3.80;;
66478;SDS011;53294;47.912;13.526;2022-08-11T03:13:47;7.47;;;4.95;;
66478;SDS011;53294;47.912;13.526;2022-08-11T03:16:57;6.15;;;4.70;;
66478;SDS011;53294;47.912;13.526;2022-08-11T03:22:50;7.70;;;5.07;;
66478;SDS011;53294;47.912;13.526;2022-08-11T03:25:48;7.35;;;5.70;;
66478;SDS011;53294;47.912;13.526;2022-08-11T03:28:31;8.32;;;6.07;;
66478;SDS011;53294;47.912;13.526;2022-08-11T03:33:59;7.50;;;5.28;;
66478;SDS011;53294;47.912;13.526;2022-08-11T03:36:40;6.35;;;5.28;;
66478;SDS011;53294;47.912;13.526;2022-08-11T03:42:28;11.32;;;8.43;;
66478;SDS011;53294;47.912;13.526;2022-08-11T03:45:51;7.03;;;5.47;;
66478;SDS011;53294;47.912;13.526;2022-08-11T03:48:36;7.40;;;4.80;;
66478;SDS011;53294;47.912;13.526;2022-08-11T04:08:28;8.10;;;5.03;;
66478;SDS011;53294;47.912;13.526;2022-08-11T04:16:27;7.47;;;5.35;;
66478;SDS011;53294;47.912;13.526;2022-08-11T04:25:15;6.60;;;4.57;;
66478;SDS011;53294;47.912;13.526;2022-08-11T04:51:26;6.53;;;4.95;;
66478;SDS011;53294;47.912;13.526;2022-08-11T05:10:15;6.05;;;4.40;;
66478;SDS011;53294;47.912;13.526;2022-08-11T05:12:51;7.80;;;5.20;;
66478;SDS011;53294;47.912;13.526;2022-08-11T05:15:28;7.00;;;5.00;;
66478;SDS011;53294;47.912;13.526;2022-08-11T05:18:21;9.25;;;5.07;;
66478;SDS011;53294;47.912;13.526;2022-08-11T05:21:08;6.60;;;4.97;;
66478;SDS011;53294;47.912;13.526;2022-08-11T05:24:15;7.38;;;5.32;;
66478;SDS011;53294;47.912;13.526;2022-08-11T05:27:07;6.07;;;5.00;;
66478;SDS011;53294;47.912;13.526;2022-08-11T05:30:02;8.20;;;5.03;;
66478;SDS011;53294;47.912;13.526;2022-08-11T05:32:58;8.65;;;5.10;;
66478;SDS011;53294;47.912;13.526;2022-08-11T05:35:46;5.97;;;4.55;;
66478;SDS011;53294;47.912;13.526;2022-08-11T05:38:29;6.82;;;5.07;;
66478;SDS011;53294;47.912;13.526;2022-08-11T05:41:18;6.90;;;5.00;;
66478;SDS011;53294;47.912;13.526;2022-08-11T05:44:07;7.80;;;5.18;;
66478;SDS011;53294;47.912;13.526;2022-08-11T05:46:54;6.45;;;5.07;;
66478;SDS011;53294;47.912;13.526;2022-08-11T05:49:47;6.25;;;5.03;;
66478;SDS011;53294;47.912;13.526;2022-08-11T05:52:39;7.90;;;4.95;;
66478;SDS011;53294;47.912;13.526;2022-08-11T05:55:35;9.02;;;4.90;;
66478;SDS011;53294;47.912;13.526;2022-08-11T05:58:35;8.00;;;5.68;;
66478;SDS011;53294;47.912;13.526;2022-08-11T06:01:09;7.72;;;5.10;;
66478;SDS011;53294;47.912;13.526;2022-08-11T06:03:38;6.15;;;4.80;;
66478;SDS011;53294;47.912;13.526;2022-08-11T06:06:29;6.90;;;5.28;;
66478;SDS011;53294;47.912;13.526;2022-08-11T06:08:56;6.43;;;4.75;;
66478;SDS011;53294;47.912;13.526;2022-08-11T06:11:24;6.90;;;6.00;;
66478;SDS011;53294;47.912;13.526;2022-08-11T06:14:09;7.80;;;5.43;;
66478;SDS011;53294;47.912;13.526;2022-08-11T06:16:37;6.32;;;5.22;;
66478;SDS011;53294;47.912;13.526;2022-08-11T06:19:07;8.40;;;5.50;;
66478;SDS011;53294;47.912;13.526;2022-08-11T06:21:35;5.45;;;4.30;;
66478;SDS011;53294;47.912;13.526;2022-08-11T06:24:03;7.30;;;5.30;;
66478;SDS011;53294;47.912;13.526;2022-08-11T06:26:37;7.47;;;5.13;;
66478;SDS011;53294;47.912;13.526;2022-08-11T06:29:33;7.63;;;4.75;;
66478;SDS011;53294;47.912;13.526;2022-08-11T06:32:20;6.82;;;5.05;;
66478;SDS011;53294;47.912;13.526;2022-08-11T06:37:34;6.50;;;5.47;;
66478;SDS011;53294;47.912;13.526;2022-08-11T06:40:07;7.30;;;5.07;;
66478;SDS011;53294;47.912;13.526;2022-08-11T06:46:00;7.50;;;5.13;;
66478;SDS011;53294;47.912;13.526;2022-08-11T06:48:31;6.50;;;4.32;;
66478;SDS011;53294;47.912;13.526;2022-08-11T06:51:03;6.75;;;4.45;;
66478;SDS011;53294;47.912;13.526;2022-08-11T06:53:44;6.55;;;4.30;;
66478;SDS011;53294;47.912;13.526;2022-08-11T06:56:36;5.93;;;4.03;;
66478;SDS011;53294;47.912;13.526;2022-08-11T06:59:44;7.32;;;4.63;;
66478;SDS011;53294;47.912;13.526;2022-08-11T07:02:42;5.25;;;3.60;;
66478;SDS011;53294;47.912;13.526;2022-08-11T07:05:20;6.53;;;4.20;;
66478;SDS011;53294;47.912;13.526;2022-08-11T07:14:15;4.85;;;3.03;;
66478;SDS011;53294;47.912;13.526;2022-08-11T07:17:05;8.05;;;4.45;;
66478;SDS011;53294;47.912;13.526;2022-08-11T07:19:36;5.23;;;3.80;;
66478;SDS011;53294;47.912;13.526;2022-08-11T07:22:28;6.35;;;4.03;;
66478;SDS011;53294;47.912;13.526;2022-08-11T07:25:16;6.38;;;3.78;;
66478;SDS011;53294;47.912;13.526;2022-08-11T07:28:04;6.32;;;3.25;;
66478;SDS011;53294;47.912;13.526;2022-08-11T07:30:55;4.55;;;2.60;;
66478;SDS011;53294;47.912;13.526;2022-08-11T07:33:29;6.53;;;3.80;;
66478;SDS011;53294;47.912;13.526;2022-08-11T07:36:25;5.38;;;3.35;;
66478;SDS011;53294;47.912;13.526;2022-08-11T07:38:54;5.32;;;3.00;;
66478;SDS011;53294;47.912;13.526;2022-08-11T07:41:22;5.93;;;3.70;;
66478;SDS011;53294;47.912;13.526;2022-08-11T07:43:52;4.80;;;3.25;;
66478;SDS011;53294;47.912;13.526;2022-08-11T07:46:22;5.68;;;4.18;;
66478;SDS011;53294;47.912;13.526;2022-08-11T07:49:08;5.90;;;3.53;;
66478;SDS011;53294;47.912;13.526;2022-08-11T07:51:54;5.60;;;3.70;;
66478;SDS011;53294;47.912;13.526;2022-08-11T07:54:40;5.68;;;3.83;;
66478;SDS011;53294;47.912;13.526;2022-08-11T07:57:16;6.68;;;3.70;;
66478;SDS011;53294;47.912;13.526;2022-08-11T08:00:22;5.28;;;3.75;;
66478;SDS011;53294;47.912;13.526;2022-08-11T08:03:07;7.22;;;4.50;;
66478;SDS011;53294;47.912;13.526;2022-08-11T08:05:53;6.38;;;3.90;;
66478;SDS011;53294;47.912;13.526;2022-08-11T08:08:59;7.32;;;4.38;;
66478;SDS011;53294;47.912;13.526;2022-08-11T08:11:46;6.70;;;3.67;;
66478;SDS011;53294;47.912;13.526;2022-08-11T08:14:32;7.68;;;3.58;;
66478;SDS011;53294;47.912;13.526;2022-08-11T08:17:18;10.63;;;4.03;;
66478;SDS011;53294;47.912;13.526;2022-08-11T08:20:10;6.32;;;3.50;;
66478;SDS011;53294;47.912;13.526;2022-08-11T08:22:39;7.15;;;4.07;;
66478;SDS011;53294;47.912;13.526;2022-08-11T08:25:13;6.00;;;3.72;;
66478;SDS011;53294;47.912;13.526;2022-08-11T08:27:40;5.05;;;3.53;;
66478;SDS011;53294;47.912;13.526;2022-08-11T08:30:09;7.75;;;3.35;;
66478;SDS011;53294;47.912;13.526;2022-08-11T08:32:55;6.50;;;3.50;;
66478;SDS011;53294;47.912;13.526;2022-08-11T08:35:24;6.95;;;3.75;;
66478;SDS011;53294;47.912;13.526;2022-08-11T08:37:57;4.95;;;3.10;;
66478;SDS011;53294;47.912;13.526;2022-08-11T08:40:27;6.15;;;3.30;;
66478;SDS011;53294;47.912;13.526;2022-08-11T08:42:55;5.38;;;3.60;;
66478;SDS011;53294;47.912;13.526;2022-08-11T08:45:24;8.38;;;4.15;;
66478;SDS011;53294;47.912;13.526;2022-08-11T08:50:22;7.07;;;3.45;;
66478;SDS011;53294;47.912;13.526;2022-08-11T08:53:19;5.40;;;3.63;;
66478;SDS011;53294;47.912;13.526;2022-08-11T08:55:48;6.13;;;3.80;;
66478;SDS011;53294;47.912;13.526;2022-08-11T08:58:18;6.13;;;3.78;;
66478;SDS011;53294;47.912;13.526;2022-08-11T09:00:48;6.80;;;3.40;;
66478;SDS011;53294;47.912;13.526;2022-08-11T09:03:17;6.93;;;3.30;;
66478;SDS011;53294;47.912;13.526;2022-08-11T09:06:05;6.70;;;3.42;;
66478;SDS011;53294;47.912;13.526;2022-08-11T09:08:32;5.40;;;3.15;;
66478;SDS011;53294;47.912;13.526;2022-08-11T09:11:01;5.47;;;2.92;;
66478;SDS011;53294;47.912;13.526;2022-08-11T09:13:47;4.72;;;3.13;;
66478;SDS011;53294;47.912;13.526;2022-08-11T09:16:33;5.43;;;3.15;;
66478;SDS011;53294;47.912;13.526;2022-08-11T09:19:01;6.28;;;3.20;;
66478;SDS011;53294;47.912;13.526;2022-08-11T09:21:29;5.05;;;3.40;;
66478;SDS011;53294;47.912;13.526;2022-08-11T09:24:15;5.57;;;3.00;;
66478;SDS011;53294;47.912;13.526;2022-08-11T09:27:05;7.75;;;3.80;;
66478;SDS011;53294;47.912;13.526;2022-08-11T09:29:33;4.93;;;3.10;;
66478;SDS011;53294;47.912;13.526;2022-08-11T09:32:02;4.72;;;3.13;;
66478;SDS011;53294;47.912;13.526;2022-08-11T09:34:33;5.50;;;2.90;;
66478;SDS011;53294;47.912;13.526;2022-08-11T09:37:02;4.43;;;2.65;;
66478;SDS011;53294;47.912;13.526;2022-08-11T09:40:09;4.60;;;2.67;;
66478;SDS011;53294;47.912;13.526;2022-08-11T09:42:58;5.38;;;3.20;;
66478;SDS011;53294;47.912;13.526;2022-08-11T09:45:47;4.50;;;2.55;;
66478;SDS011;53294;47.912;13.526;2022-08-11T09:48:17;4.75;;;3.00;;
66478;SDS011;53294;47.912;13.526;2022-08-11T09:50:49;5.30;;;2.95;;
66478;SDS011;53294;47.912;13.526;2022-08-11T09:53:23;6.60;;;3.00;;
66478;SDS011;53294;47.912;13.526;2022-08-11T09:56:09;4.22;;;2.53;;
66478;SDS011;53294;47.912;13.526;2022-08-11T09:59:07;4.28;;;2.60;;
66478;SDS011;53294;47.912;13.526;2022-08-11T10:01:36;7.60;;;2.58;;
66478;SDS011;53294;47.912;13.526;2022-08-11T10:04:16;4.93;;;2.50;;
66478;SDS011;53294;47.912;13.526;2022-08-11T10:06:48;4.50;;;2.60;;
66478;SDS011;53294;47.912;13.526;2022-08-11T10:09:50;4.53;;;2.35;;
66478;SDS011;53294;47.912;13.526;2022-08-11T10:12:22;3.60;;;2.35;;
66478;SDS011;53294;47.912;13.526;2022-08-11T10:15:01;4.07;;;2.63;;
66478;SDS011;53294;47.912;13.526;2022-08-11T10:17:52;5.18;;;2.15;;
66478;SDS011;53294;47.912;13.526;2022-08-11T10:20:42;4.65;;;2.50;;
66478;SDS011;53294;47.912;13.526;2022-08-11T10:23:15;4.95;;;2.58;;
66478;SDS011;53294;47.912;13.526;2022-08-11T10:26:28;5.30;;;2.78;;
66478;SDS011;53294;47.912;13.526;2022-08-11T10:32:03;4.03;;;2.20;;
66478;SDS011;53294;47.912;13.526;2022-08-11T10:34:56;4.00;;;2.30;;
66478;SDS011;53294;47.912;13.526;2022-08-11T10:37:26;4.57;;;2.10;;
66478;SDS011;53294;47.912;13.526;2022-08-11T10:40:20;3.78;;;2.25;;
66478;SDS011;53294;47.912;13.526;2022-08-11T10:42:53;3.70;;;2.40;;
66478;SDS011;53294;47.912;13.526;2022-08-11T10:45:28;4.38;;;2.10;;
66478;SDS011;53294;47.912;13.526;2022-08-11T10:48:15;4.03;;;2.30;;
66478;SDS011;53294;47.912;13.526;2022-08-11T10:50:46;4.88;;;2.20;;
66478;SDS011;53294;47.912;13.526;2022-08-11T10:53:34;3.92;;;2.28;;
66478;SDS011;53294;47.912;13.526;2022-08-11T10:56:22;3.60;;;2.00;;
66478;SDS011;53294;47.912;13.526;2022-08-11T10:59:08;4.78;;;2.20;;
66478;SDS011;53294;47.912;13.526;2022-08-11T11:01:41;4.30;;;1.98;;
66478;SDS011;53294;47.912;13.526;2022-08-11T11:09:57;3.72;;;1.98;;
66478;SDS011;53294;47.912;13.526;2022-08-11T11:12:32;2.92;;;1.90;;
66478;SDS011;53294;47.912;13.526;2022-08-11T11:15:21;4.90;;;2.35;;
66478;SDS011;53294;47.912;13.526;2022-08-11T11:18:11;3.75;;;2.40;;
66478;SDS011;53294;47.912;13.526;2022-08-11T11:37:22;6.93;;;2.03;;
66478;SDS011;53294;47.912;13.526;2022-08-11T11:39:50;3.67;;;1.83;;
66478;SDS011;53294;47.912;13.526;2022-08-11T11:42:19;3.80;;;1.92;;
66478;SDS011;53294;47.912;13.526;2022-08-11T11:44:47;3.70;;;2.00;;
66478;SDS011;53294;47.912;13.526;2022-08-11T11:47:14;3.25;;;2.00;;
66478;SDS011;53294;47.912;13.526;2022-08-11T11:49:47;3.50;;;1.85;;
66478;SDS011;53294;47.912;13.526;2022-08-11T11:52:15;3.72;;;2.08;;
66478;SDS011;53294;47.912;13.526;2022-08-11T11:54:45;3.17;;;1.98;;
66478;SDS011;53294;47.912;13.526;2022-08-11T11:57:17;2.90;;;1.83;;
66478;SDS011;53294;47.912;13.526;2022-08-11T12:00:05;4.10;;;1.80;;
66478;SDS011;53294;47.912;13.526;2022-08-11T12:03:00;2.40;;;1.70;;
66478;SDS011;53294;47.912;13.526;2022-08-11T12:05:30;3.00;;;1.60;;
66478;SDS011;53294;47.912;13.526;2022-08-11T12:08:01;3.00;;;1.90;;
66478;SDS011;53294;47.912;13.526;2022-08-11T12:13:11;4.38;;;2.00;;
66478;SDS011;53294;47.912;13.526;2022-08-11T12:15:57;2.95;;;1.90;;
66478;SDS011;53294;47.912;13.526;2022-08-11T12:18:49;3.38;;;1.90;;
66478;SDS011;53294;47.912;13.526;2022-08-11T12:21:19;2.92;;;1.80;;
66478;SDS011;53294;47.912;13.526;2022-08-11T12:23:47;2.40;;;1.67;;
66478;SDS011;53294;47.912;13.526;2022-08-11T12:26:33;3.42;;;1.60;;
66478;SDS011;53294;47.912;13.526;2022-08-11T12:29:39;4.65;;;1.83;;
66478;SDS011;53294;47.912;13.526;2022-08-11T12:32:10;5.30;;;2.10;;
66478;SDS011;53294;47.912;13.526;2022-08-11T12:34:37;3.03;;;1.90;;
66478;SDS011;53294;47.912;13.526;2022-08-11T12:37:04;5.57;;;1.80;;
66478;SDS011;53294;47.912;13.526;2022-08-11T12:39:41;2.72;;;1.80;;
66478;SDS011;53294;47.912;13.526;2022-08-11T12:42:50;3.38;;;1.73;;
66478;SDS011;53294;47.912;13.526;2022-08-11T12:45:48;2.60;;;1.70;;
66478;SDS011;53294;47.912;13.526;2022-08-11T12:48:20;2.60;;;1.60;;
66478;SDS011;53294;47.912;13.526;2022-08-11T12:51:27;2.95;;;1.85;;
66478;SDS011;53294;47.912;13.526;2022-08-11T13:00:26;2.53;;;1.80;;
66478;SDS011;53294;47.912;13.526;2022-08-11T13:03:13;3.03;;;1.58;;
66478;SDS011;53294;47.912;13.526;2022-08-11T13:06:02;3.65;;;1.75;;
66478;SDS011;53294;47.912;13.526;2022-08-11T13:08:34;4.18;;;2.13;;
66478;SDS011;53294;47.912;13.526;2022-08-11T13:11:08;2.90;;;1.80;;
66478;SDS011;53294;47.912;13.526;2022-08-11T13:14:15;3.70;;;1.95;;
66478;SDS011;53294;47.912;13.526;2022-08-11T13:16:45;4.40;;;1.80;;
66478;SDS011;53294;47.912;13.526;2022-08-11T13:19:31;3.38;;;1.90;;
66478;SDS011;53294;47.912;13.526;2022-08-11T13:21:59;2.90;;;1.92;;
66478;SDS011;53294;47.912;13.526;2022-08-11T13:24:30;1.95;;;1.60;;
66478;SDS011;53294;47.912;13.526;2022-08-11T13:27:03;4.07;;;1.80;;
66478;SDS011;53294;47.912;13.526;2022-08-11T13:29:32;4.10;;;1.73;;
66478;SDS011;53294;47.912;13.526;2022-08-11T13:32:03;3.78;;;1.80;;
66478;SDS011;53294;47.912;13.526;2022-08-11T13:34:32;2.55;;;1.70;;
66478;SDS011;53294;47.912;13.526;2022-08-11T13:37:06;3.00;;;1.80;;
66478;SDS011;53294;47.912;13.526;2022-08-11T13:39:35;3.40;;;1.75;;
66478;SDS011;53294;47.912;13.526;2022-08-11T13:42:03;2.65;;;1.60;;
66478;SDS011;53294;47.912;13.526;2022-08-11T13:44:33;3.58;;;1.70;;
66478;SDS011;53294;47.912;13.526;2022-08-11T13:47:03;2.70;;;1.85;;
66478;SDS011;53294;47.912;13.526;2022-08-11T13:49:34;3.38;;;2.10;;
66478;SDS011;53294;47.912;13.526;2022-08-11T13:52:05;4.75;;;1.90;;
66478;SDS011;53294;47.912;13.526;2022-08-11T13:54:38;3.17;;;1.88;;
66478;SDS011;53294;47.912;13.526;2022-08-11T13:57:06;2.55;;;1.75;;
66478;SDS011;53294;47.912;13.526;2022-08-11T13:59:56;3.55;;;1.73;;
66478;SDS011;53294;47.912;13.526;2022-08-11T14:02:53;2.45;;;1.83;;
66478;SDS011;53294;47.912;13.526;2022-08-11T14:05:23;2.97;;;1.75;;
66478;SDS011;53294;47.912;13.526;2022-08-11T14:08:00;2.88;;;1.70;;
66478;SDS011;53294;47.912;13.526;2022-08-11T14:10:29;3.75;;;1.70;;
66478;SDS011;53294;47.912;13.526;2022-08-11T14:13:16;2.50;;;1.48;;
66478;SDS011;53294;47.912;13.526;2022-08-11T14:16:17;3.20;;;1.60;;
66478;SDS011;53294;47.912;13.526;2022-08-11T14:18:47;3.20;;;1.77;;
66478;SDS011;53294;47.912;13.526;2022-08-11T14:21:17;2.65;;;1.65;;
66478;SDS011;53294;47.912;13.526;2022-08-11T14:24:05;3.60;;;2.05;;
66478;SDS011;53294;47.912;13.526;2022-08-11T14:26:33;2.65;;;1.70;;
66478;SDS011;53294;47.912;13.526;2022-08-11T14:29:05;4.30;;;2.10;;
66478;SDS011;53294;47.912;13.526;2022-08-11T14:31:39;3.40;;;1.65;;
66478;SDS011;53294;47.912;13.526;2022-08-11T14:34:17;3.00;;;1.80;;
66478;SDS011;53294;47.912;13.526;2022-08-11T14:36:48;5.22;;;2.88;;
66478;SDS011;53294;47.912;13.526;2022-08-11T14:39:22;2.50;;;1.65;;
66478;SDS011;53294;47.912;13.526;2022-08-11T14:44:48;4.55;;;2.08;;
66478;SDS011;53294;47.912;13.526;2022-08-11T14:47:36;4.95;;;1.88;;
66478;SDS011;53294;47.912;13.526;2022-08-11T14:50:07;2.90;;;1.83;;
66478;SDS011;53294;47.912;13.526;2022-08-11T14:52:45;3.63;;;1.75;;
66478;SDS011;53294;47.912;13.526;2022-08-11T14:55:34;3.65;;;1.80;;
66478;SDS011;53294;47.912;13.526;2022-08-11T14:58:21;3.15;;;1.90;;
66478;SDS011;53294;47.912;13.526;2022-08-11T15:00:51;4.00;;;1.90;;
66478;SDS011;53294;47.912;13.526;2022-08-11T15:03:22;5.18;;;2.00;;
66478;SDS011;53294;47.912;13.526;2022-08-11T15:05:55;4.03;;;1.88;;
66478;SDS011;53294;47.912;13.526;2022-08-11T15:08:28;2.30;;;1.77;;
66478;SDS011;53294;47.912;13.526;2022-08-11T15:11:15;2.80;;;1.88;;
66478;SDS011;53294;47.912;13.526;2022-08-11T15:14:03;4.20;;;1.83;;
66478;SDS011;53294;47.912;13.526;2022-08-11T15:16:33;4.93;;;1.80;;
66478;SDS011;53294;47.912;13.526;2022-08-11T15:19:20;3.63;;;1.65;;
66478;SDS011;53294;47.912;13.526;2022-08-11T15:21:48;3.72;;;1.90;;
66478;SDS011;53294;47.912;13.526;2022-08-11T15:24:34;3.20;;;1.85;;
66478;SDS011;53294;47.912;13.526;2022-08-11T15:27:07;4.20;;;2.10;;
66478;SDS011;53294;47.912;13.526;2022-08-11T15:29:57;3.30;;;1.67;;
66478;SDS011;53294;47.912;13.526;2022-08-11T15:33:00;2.53;;;1.75;;
66478;SDS011;53294;47.912;13.526;2022-08-11T15:35:50;3.47;;;1.60;;
66478;SDS011;53294;47.912;13.526;2022-08-11T15:38:41;3.42;;;1.60;;
66478;SDS011;53294;47.912;13.526;2022-08-11T15:41:13;3.15;;;1.77;;
66478;SDS011;53294;47.912;13.526;2022-08-11T15:44:01;3.65;;;1.80;;
66478;SDS011;53294;47.912;13.526;2022-08-11T15:47:13;3.85;;;1.90;;
66478;SDS011;53294;47.912;13.526;2022-08-11T15:49:43;4.00;;;1.75;;
66478;SDS011;53294;47.912;13.526;2022-08-11T15:52:33;3.75;;;2.00;;
66478;SDS011;53294;47.912;13.526;2022-08-11T15:55:07;4.18;;;1.50;;
66478;SDS011;53294;47.912;13.526;2022-08-11T15:57:35;3.58;;;1.63;;
66478;SDS011;53294;47.912;13.526;2022-08-11T16:00:22;3.67;;;2.08;;
66478;SDS011;53294;47.912;13.526;2022-08-11T16:03:08;4.47;;;2.30;;
66478;SDS011;53294;47.912;13.526;2022-08-11T16:06:15;2.58;;;1.65;;
66478;SDS011;53294;47.912;13.526;2022-08-11T16:08:42;2.97;;;1.90;;
66478;SDS011;53294;47.912;13.526;2022-08-11T16:11:11;2.53;;;1.65;;
66478;SDS011;53294;47.912;13.526;2022-08-11T16:13:39;2.80;;;1.73;;
66478;SDS011;53294;47.912;13.526;2022-08-11T16:16:06;6.70;;;1.55;;
66478;SDS011;53294;47.912;13.526;2022-08-11T16:18:52;2.72;;;1.85;;
66478;SDS011;53294;47.912;13.526;2022-08-11T16:24:11;3.75;;;2.00;;
66478;SDS011;53294;47.912;13.526;2022-08-11T16:27:00;6.22;;;1.98;;
66478;SDS011;53294;47.912;13.526;2022-08-11T16:29:42;5.07;;;1.60;;
66478;SDS011;53294;47.912;13.526;2022-08-11T16:32:17;5.28;;;2.10;;
66478;SDS011;53294;47.912;13.526;2022-08-11T16:34:59;3.65;;;1.60;;
66478;SDS011;53294;47.912;13.526;2022-08-11T16:37:46;4.60;;;2.08;;
66478;SDS011;53294;47.912;13.526;2022-08-11T16:40:32;2.60;;;1.73;;
66478;SDS011;53294;47.912;13.526;2022-08-11T16:43:00;3.05;;;1.90;;
66478;SDS011;53294;47.912;13.526;2022-08-11T16:45:49;4.43;;;1.85;;
66478;SDS011;53294;47.912;13.526;2022-08-11T16:48:37;2.50;;;1.73;;
66478;SDS011;53294;47.912;13.526;2022-08-11T16:51:07;2.38;;;1.50;;
66478;SDS011;53294;47.912;13.526;2022-08-11T16:53:37;3.15;;;1.80;;
66478;SDS011;53294;47.912;13.526;2022-08-11T16:57:12;3.25;;;1.75;;
66478;SDS011;53294;47.912;13.526;2022-08-11T16:59:24;4.55;;;1.90;;
66478;SDS011;53294;47.912;13.526;2022-08-11T17:01:58;3.83;;;1.88;;
66478;SDS011;53294;47.912;13.526;2022-08-11T17:07:19;2.83;;;1.70;;
66478;SDS011;53294;47.912;13.526;2022-08-11T17:10:24;3.40;;;1.70;;
66478;SDS011;53294;47.912;13.526;2022-08-11T17:14:03;2.13;;;1.80;;
66478;SDS011;53294;47.912;13.526;2022-08-11T17:16:26;2.50;;;1.65;;
66478;SDS011;53294;47.912;13.526;2022-08-11T17:24:31;3.00;;;1.45;;
66478;SDS011;53294;47.912;13.526;2022-08-11T17:27:03;2.70;;;1.70;;
66478;SDS011;53294;47.912;13.526;2022-08-11T17:32:30;3.65;;;1.65;;
66478;SDS011;53294;47.912;13.526;2022-08-11T17:35:24;2.20;;;1.55;;
66478;SDS011;53294;47.912;13.526;2022-08-11T17:40:37;2.42;;;1.67;;
66478;SDS011;53294;47.912;13.526;2022-08-11T17:43:25;4.30;;;2.00;;
66478;SDS011;53294;47.912;13.526;2022-08-11T17:46:14;4.57;;;2.05;;
66478;SDS011;53294;47.912;13.526;2022-08-11T17:49:00;2.42;;;1.60;;
66478;SDS011;53294;47.912;13.526;2022-08-11T17:51:29;5.72;;;1.83;;
66478;SDS011;53294;47.912;13.526;2022-08-11T17:54:15;3.85;;;1.90;;
66478;SDS011;53294;47.912;13.526;2022-08-11T17:57:01;3.47;;;1.90;;
66478;SDS011;53294;47.912;13.526;2022-08-11T17:59:47;2.70;;;1.63;;
66478;SDS011;53294;47.912;13.526;2022-08-11T18:05:18;3.50;;;1.80;;
66478;SDS011;53294;47.912;13.526;2022-08-11T18:07:47;2.75;;;1.73;;
66478;SDS011;53294;47.912;13.526;2022-08-11T18:10:36;2.88;;;1.67;;
66478;SDS011;53294;47.912;13.526;2022-08-11T18:13:24;3.30;;;1.70;;
66478;SDS011;53294;47.912;13.526;2022-08-11T18:16:12;4.20;;;1.90;;
66478;SDS011;53294;47.912;13.526;2022-08-11T18:18:58;3.97;;;1.70;;
66478;SDS011;53294;47.912;13.526;2022-08-11T18:21:44;5.57;;;3.45;;
66478;SDS011;53294;47.912;13.526;2022-08-11T18:24:43;3.42;;;1.83;;
66478;SDS011;53294;47.912;13.526;2022-08-11T18:27:32;3.47;;;1.90;;
66478;SDS011;53294;47.912;13.526;2022-08-11T18:30:18;2.35;;;1.52;;
66478;SDS011;53294;47.912;13.526;2022-08-11T18:33:04;2.88;;;2.00;;
66478;SDS011;53294;47.912;13.526;2022-08-11T18:36:23;4.03;;;2.10;;
66478;SDS011;53294;47.912;13.526;2022-08-11T18:39:14;2.38;;;1.73;;
66478;SDS011;53294;47.912;13.526;2022-08-11T18:42:05;3.35;;;2.00;;
66478;SDS011;53294;47.912;13.526;2022-08-11T18:44:55;2.22;;;1.67;;
66478;SDS011;53294;47.912;13.526;2022-08-11T18:47:44;2.92;;;1.98;;
66478;SDS011;53294;47.912;13.526;2022-08-11T18:50:34;3.58;;;1.92;;
66478;SDS011;53294;47.912;13.526;2022-08-11T18:53:42;4.82;;;2.08;;
66478;SDS011;53294;47.912;13.526;2022-08-11T18:56:30;3.33;;;2.05;;
66478;SDS011;53294;47.912;13.526;2022-08-11T18:59:17;2.80;;;1.90;;
66478;SDS011;53294;47.912;13.526;2022-08-11T19:02:05;4.78;;;1.90;;
66478;SDS011;53294;47.912;13.526;2022-08-11T19:04:51;4.18;;;2.08;;
66478;SDS011;53294;47.912;13.526;2022-08-11T19:07:40;2.85;;;1.77;;
66478;SDS011;53294;47.912;13.526;2022-08-11T19:10:29;3.75;;;1.92;;
66478;SDS011;53294;47.912;13.526;2022-08-11T19:13:15;4.20;;;1.80;;
66478;SDS011;53294;47.912;13.526;2022-08-11T19:16:07;4.35;;;2.30;;
66478;SDS011;53294;47.912;13.526;2022-08-11T19:18:53;2.63;;;1.75;;
66478;SDS011;53294;47.912;13.526;2022-08-11T19:21:40;3.72;;;1.80;;
66478;SDS011;53294;47.912;13.526;2022-08-11T19:24:26;3.80;;;1.83;;
66478;SDS011;53294;47.912;13.526;2022-08-11T19:27:14;3.70;;;2.10;;
66478;SDS011;53294;47.912;13.526;2022-08-11T19:30:01;5.72;;;2.15;;
66478;SDS011;53294;47.912;13.526;2022-08-11T19:32:47;3.03;;;1.88;;
66478;SDS011;53294;47.912;13.526;2022-08-11T19:35:34;4.10;;;1.73;;
66478;SDS011;53294;47.912;13.526;2022-08-11T19:38:20;2.63;;;1.70;;
66478;SDS011;53294;47.912;13.526;2022-08-11T19:41:06;3.75;;;2.00;;
66478;SDS011;53294;47.912;13.526;2022-08-11T19:44:12;3.13;;;1.98;;
66478;SDS011;53294;47.912;13.526;2022-08-11T19:47:00;3.70;;;1.75;;
66478;SDS011;53294;47.912;13.526;2022-08-11T19:49:46;2.97;;;2.00;;
66478;SDS011;53294;47.912;13.526;2022-08-11T19:52:33;2.90;;;1.67;;
66478;SDS011;53294;47.912;13.526;2022-08-11T19:55:19;4.22;;;2.05;;
66478;SDS011;53294;47.912;13.526;2022-08-11T19:58:05;4.45;;;1.75;;
66478;SDS011;53294;47.912;13.526;2022-08-11T20:00:51;4.00;;;2.08;;
66478;SDS011;53294;47.912;13.526;2022-08-11T20:03:36;4.72;;;1.80;;